Time;durP1;ratioP1;P1;durP2;ratioP2;P2;SDS_P1;SDS_P2;PMS_P1;PMS_P2;Temp;Humidity;BMP_temperature;BMP_pressure;BME280_temperature;BME280_humidity;BME280_pressure;Samples;Min_cycle;Max_cycle;Signal;HPM_P1;HPM_P2
2021/04/04 00:01:04;;;;;;;8.98;4.90;;;204.90;1945.60;;;;;;5054504;28;19920;-77
2021/04/04 00:03:32;;;;;;;13.60;6.90;;;204.80;1971.20;;;;;;5055547;28;20017;-89
2021/04/04 00:05:58;;;;;;;15.02;7.55;;;204.90;1945.60;;;;;;5053293;28;20027;-76
2021/04/04 00:08:24;;;;;;;;;;;204.80;1945.60;;;;;;5056388;28;20651;-76
2021/04/04 00:10:49;;;;;;;8.80;4.95;;;204.80;1945.60;;;;;;5055857;28;19909;-75
2021/04/04 00:13:15;;;;;;;;;;;204.80;1945.60;;;;;;5056011;28;20095;-87
2021/04/04 00:15:41;;;;;;;10.55;6.07;;;180.10;1971.20;;;;;;5055193;28;19956;-75
2021/04/04 00:18:08;;;;;;;11.98;6.07;;;180.10;1945.60;;;;;;5055380;28;20037;-75
2021/04/04 00:20:34;;;;;;;11.70;5.45;;;180.00;1945.60;;;;;;5055588;28;20543;-75
2021/04/04 00:23:00;;;;;;;10.73;5.65;;;204.80;1945.60;;;;;;5055178;28;20103;-75
2021/04/04 00:25:25;;;;;;;;;;;180.10;1945.60;;;;;;5055970;28;20055;-76
2021/04/04 00:27:51;;;;;;;10.27;5.55;;;180.10;1945.60;;;;;;5055403;28;20361;-90
2021/04/04 00:30:19;;;;;;;;;;;180.10;1945.60;;;;;;5055814;28;20476;-76
2021/04/04 00:32:44;;;;;;;;;;;180.00;1945.60;;;;;;5054612;28;19905;-88
2021/04/04 00:35:15;;;;;;;9.05;5.03;;;180.10;1945.60;;;;;;5055355;28;20004;-76
2021/04/04 00:37:42;;;;;;;13.45;5.80;;;180.00;1945.60;;;;;;5053910;28;20043;-76
2021/04/04 00:40:14;;;;;;;11.18;5.82;;;180.00;1945.60;;;;;;5055624;28;20059;-86
2021/04/04 00:42:40;;;;;;;13.85;6.50;;;180.00;1971.20;;;;;;5052534;28;20021;-83
2021/04/04 00:45:07;;;;;;;;;;;180.00;1945.60;;;;;;5055927;28;20120;-77
2021/04/04 00:47:33;;;;;;;20.15;6.93;;;179.90;1971.20;;;;;;5055113;28;19946;-80
2021/04/04 00:49:58;;;;;;;;;;;179.80;1971.20;;;;;;5055762;28;20116;-80
2021/04/04 00:52:24;;;;;;;10.35;5.38;;;179.80;1971.20;;;;;;5055362;28;19939;-76
2021/04/04 00:54:50;;;;;;;;;;;179.80;1971.20;;;;;;5056751;28;20036;-89
2021/04/04 00:57:15;;;;;;;10.20;5.85;;;179.70;1996.80;;;;;;5055442;28;19980;-78
2021/04/04 00:59:41;;;;;;;;;;;179.70;1996.80;;;;;;5055945;28;20021;-86
2021/04/04 01:02:07;;;;;;;9.50;5.10;;;179.70;2022.40;;;;;;5055412;28;19911;-85
2021/04/04 01:04:32;;;;;;;;;;;179.70;2022.40;;;;;;5055380;28;20025;-76
2021/04/04 01:06:58;;;;;;;10.10;5.88;;;179.80;2022.40;;;;;;5055048;28;19905;-76
2021/04/04 01:09:24;;;;;;;;;;;179.80;1996.80;;;;;;5055188;28;20075;-75
2021/04/04 01:12:23;;;;;;;11.60;5.50;;;179.70;1971.20;;;;;;5054322;28;20394;-87
2021/04/04 01:14:56;;;;;;;12.93;6.13;;;179.70;1996.80;;;;;;4981280;28;20043;-84
2021/04/04 01:17:23;;;;;;;11.35;6.13;;;179.70;1996.80;;;;;;4982366;28;20184;-75
2021/04/04 01:20:07;;;;;;;11.15;6.20;;;179.70;1996.80;;;;;;4980925;28;20045;-90
2021/04/04 01:22:55;;;;;;;12.32;5.95;;;179.60;1996.80;;;;;;4984217;28;20030;-89
2021/04/04 01:25:41;;;;;;;10.57;6.10;;;179.60;1996.80;;;;;;4980710;28;20043;-83
2021/04/04 01:28:13;;;;;;;12.32;6.47;;;179.60;1996.80;;;;;;4984045;28;20034;-76
2021/04/04 01:30:41;;;;;;;12.85;5.82;;;179.60;1996.80;;;;;;4982291;28;20109;-88
2021/04/04 01:33:12;;;;;;;12.75;6.63;;;179.40;2022.40;;;;;;4982724;28;20037;-75
2021/04/04 01:35:47;;;;;;;12.25;6.90;;;179.50;2022.40;;;;;;4982288;28;20407;-87
2021/04/04 01:38:17;;;;;;;12.27;6.88;;;179.60;2048.00;;;;;;4985263;28;20548;-85
2021/04/04 01:40:46;;;;;;;9.43;5.95;;;179.50;2022.40;;;;;;4984158;28;20019;-75
2021/04/04 01:43:13;;;;;;;9.98;5.35;;;179.60;1996.80;;;;;;4983322;28;20022;-77
2021/04/04 01:45:42;;;;;;;11.35;6.00;;;179.60;2022.40;;;;;;4984513;28;20506;-88
2021/04/04 01:48:11;;;;;;;10.20;6.15;;;179.50;2022.40;;;;;;4982768;28;20063;-79
2021/04/04 01:50:38;;;;;;;12.55;5.68;;;179.60;2022.40;;;;;;5003219;28;20037;-75
2021/04/04 01:53:05;;;;;;;10.98;5.90;;;179.50;2048.00;;;;;;5051560;28;20012;-75
2021/04/04 01:55:32;;;;;;;15.05;6.30;;;179.60;2022.40;;;;;;5052139;28;20025;-89
2021/04/04 01:57:59;;;;;;;11.90;6.30;;;179.60;2022.40;;;;;;5054202;28;20024;-88
2021/04/04 02:00:28;;;;;;;10.18;5.93;;;179.80;1996.80;;;;;;5054098;28;20027;-76
2021/04/04 02:02:55;;;;;;;24.67;7.28;;;179.80;1996.80;;;;;;5053831;28;20033;-77
2021/04/04 02:05:22;;;;;;;11.93;6.90;;;179.70;2022.40;;;;;;5052623;28;20056;-76
2021/04/04 02:07:50;;;;;;;11.32;7.07;;;179.80;2022.40;;;;;;5053410;28;20543;-75
2021/04/04 02:10:23;;;;;;;10.93;6.07;;;179.80;1996.80;;;;;;5053665;28;20021;-75
2021/04/04 02:12:51;;;;;;;9.50;5.93;;;179.90;1996.80;;;;;;5053704;28;20048;-89
2021/04/04 02:15:19;;;;;;;14.82;7.47;;;180.00;1996.80;;;;;;5053483;28;20473;-88
2021/04/04 02:17:47;;;;;;;12.18;7.50;;;179.90;2022.40;;;;;;5053342;28;20108;-76
2021/04/04 02:20:15;;;;;;;15.73;8.68;;;179.60;2048.00;;;;;;5053435;28;20024;-75
2021/04/04 02:22:42;;;;;;;14.10;7.35;;;179.40;2099.20;;;;;;5053154;28;20044;-86
2021/04/04 02:25:10;;;;;;;14.27;8.50;;;179.30;2099.20;;;;;;5053197;28;20032;-76
2021/04/04 02:27:37;;;;;;;16.67;8.30;;;179.50;2073.60;;;;;;5053113;28;20035;-75
2021/04/04 02:30:07;;;;;;;16.85;8.85;;;179.40;2099.20;;;;;;5052893;28;20080;-76
2021/04/04 02:32:38;;;;;;;23.50;9.57;;;179.30;2124.80;;;;;;5053165;28;20036;-77
2021/04/04 02:35:05;;;;;;;13.52;8.20;;;154.50;2150.40;;;;;;5053113;28;20488;-84
2021/04/04 02:37:31;;;;;;;18.38;10.32;;;154.40;2176.00;;;;;;5053018;28;20021;-75
2021/04/04 02:40:06;;;;;;;16.55;9.75;;;154.30;2176.00;;;;;;5053030;28;20021;-75
2021/04/04 02:42:32;;;;;;;21.95;11.48;;;154.30;2227.20;;;;;;5042413;28;20041;-75
2021/04/04 02:45:00;;;;;;;18.17;11.20;;;154.20;2252.80;;;;;;5052879;28;20028;-75
2021/04/04 02:47:52;;;;;;;16.50;10.00;;;154.00;2252.80;;;;;;5053055;28;20029;-86
2021/04/04 02:50:19;;;;;;;20.80;10.48;;;154.00;2252.80;;;;;;5041882;28;20049;-75
2021/04/04 02:52:47;;;;;;;17.85;10.90;;;154.20;2252.80;;;;;;5052415;28;20021;-75
2021/04/04 02:55:15;;;;;;;15.70;10.30;;;154.30;2252.80;;;;;;5052755;28;20480;-75
2021/04/04 02:57:42;;;;;;;15.52;9.55;;;154.10;2252.80;;;;;;5052951;28;20029;-78
2021/04/04 03:00:09;;;;;;;18.75;11.95;;;154.20;2252.80;;;;;;5047353;28;20369;-75
2021/04/04 03:02:37;;;;;;;22.13;11.45;;;154.10;2252.80;;;;;;5052813;28;20447;-76
2021/04/04 03:05:06;;;;;;;20.25;11.10;;;154.20;2252.80;;;;;;5053036;28;20053;-83
2021/04/04 03:07:34;;;;;;;19.38;11.02;;;154.20;2252.80;;;;;;5053102;28;20028;-76
2021/04/04 03:10:02;;;;;;;17.98;10.18;;;154.30;2252.80;;;;;;5052775;28;20025;-80
2021/04/04 03:12:28;;;;;;;26.15;11.85;;;154.40;2252.80;;;;;;5052534;28;20032;-76
2021/04/04 03:14:58;;;;;;;16.02;9.45;;;154.20;2252.80;;;;;;5052577;28;20119;-75
2021/04/04 03:17:26;;;;;;;19.25;11.30;;;154.50;2252.80;;;;;;5052709;28;20075;-75
2021/04/04 03:19:52;;;;;;;18.15;10.32;;;154.50;2252.80;;;;;;5052354;28;20059;-74
2021/04/04 03:22:20;;;;;;;18.15;11.13;;;154.30;2252.80;;;;;;5052632;28;20025;-88
2021/04/04 03:24:48;;;;;;;15.98;10.80;;;154.30;2252.80;;;;;;5052196;28;20597;-75
2021/04/04 03:27:15;;;;;;;21.70;11.05;;;154.20;2252.80;;;;;;5052412;28;20043;-89
2021/04/04 03:29:41;;;;;;;19.10;12.25;;;154.10;2252.80;;;;;;5052775;28;20025;-80
2021/04/04 03:32:07;;;;;;;;;;;154.10;2252.80;;;;;;5053306;28;20024;-75
2021/04/04 03:34:34;;;;;;;18.88;11.00;;;154.20;2252.80;;;;;;5052483;28;19999;-75
2021/04/04 03:37:00;;;;;;;17.15;10.45;;;154.20;2252.80;;;;;;5052644;28;20029;-87
2021/04/04 03:39:26;;;;;;;;;;;154.10;2252.80;;;;;;5053279;28;20025;-87
2021/04/04 03:41:53;;;;;;;23.38;12.43;;;179.30;2252.80;;;;;;5052813;28;19912;-82
2021/04/04 03:44:21;;;;;;;29.92;14.82;;;179.20;2201.60;;;;;;5052649;28;20469;-87
2021/04/04 03:46:48;;;;;;;20.50;11.02;;;179.40;2201.60;;;;;;5052121;28;20036;-87
2021/04/04 03:49:14;;;;;;;15.95;9.77;;;179.20;2227.20;;;;;;5052579;28;20041;-87
2021/04/04 03:51:41;;;;;;;17.08;9.32;;;154.50;2252.80;;;;;;5052928;28;20104;-89
2021/04/04 03:54:12;;;;;;;14.60;9.43;;;154.40;2252.80;;;;;;5052735;28;20021;-75
2021/04/04 03:56:43;;;;;;;18.88;10.18;;;154.30;2252.80;;;;;;5052421;28;20024;-88
2021/04/04 03:59:11;;;;;;;17.48;10.52;;;179.20;2252.80;;;;;;5052300;28;20021;-90
2021/04/04 04:01:40;;;;;;;22.40;11.05;;;179.20;2252.80;;;;;;5053109;28;20377;-90
2021/04/04 04:04:09;;;;;;;17.40;10.65;;;179.30;2252.80;;;;;;5052530;28;20103;-88
2021/04/04 04:06:37;;;;;;;17.10;10.20;;;154.50;2252.80;;;;;;5052246;28;20013;-76
2021/04/04 04:09:11;;;;;;;21.60;11.65;;;154.50;2252.80;;;;;;5052089;28;20068;-89
2021/04/04 04:11:40;;;;;;;18.38;10.93;;;154.50;2252.80;;;;;;5050874;28;20025;-90
2021/04/04 04:14:08;;;;;;;22.52;12.57;;;154.40;2252.80;;;;;;5052797;28;20060;-86
2021/04/04 04:16:37;;;;;;;21.40;11.10;;;154.40;2252.80;;;;;;5052289;28;20400;-83
2021/04/04 04:19:05;;;;;;;20.70;10.70;;;179.20;2252.80;;;;;;5054840;28;20036;-77
2021/04/04 04:21:36;;;;;;;22.70;13.30;;;179.20;2252.80;;;;;;5053395;28;20017;-89
2021/04/04 04:24:05;;;;;;;20.17;10.95;;;179.40;2252.80;;;;;;5055655;28;20075;-75
2021/04/04 04:26:33;;;;;;;19.40;10.75;;;179.50;2227.20;;;;;;5053122;28;20021;-92
2021/04/04 04:29:00;;;;;;;18.50;11.27;;;179.40;2252.80;;;;;;5054830;28;20132;-91
2021/04/04 04:31:32;;;;;;;18.35;11.45;;;179.40;2227.20;;;;;;5055452;28;20021;-76
2021/04/04 04:33:58;;;;;;;22.77;12.50;;;179.50;2227.20;;;;;;5053550;28;20091;-76
2021/04/04 04:36:25;;;;;;;19.88;12.02;;;179.20;2252.80;;;;;;5055556;28;20044;-75
2021/04/04 04:38:52;;;;;;;26.02;12.32;;;154.40;2252.80;;;;;;5055538;28;20047;-75
2021/04/04 04:41:19;;;;;;;20.20;11.68;;;179.30;2252.80;;;;;;5055848;28;20009;-88
2021/04/04 04:43:50;;;;;;;22.02;10.85;;;154.50;2252.80;;;;;;5055459;28;20025;-89
2021/04/04 04:46:17;;;;;;;19.35;12.30;;;154.50;2252.80;;;;;;5042510;28;20044;-76
2021/04/04 04:48:43;;;;;;;18.67;11.88;;;154.30;2252.80;;;;;;5054031;28;20037;-91
2021/04/04 04:51:09;;;;;;;;;;;154.40;2252.80;;;;;;5055530;28;20029;-90
2021/04/04 04:53:35;;;;;;;22.13;11.60;;;154.10;2252.80;;;;;;5055266;28;19905;-75
2021/04/04 04:56:03;;;;;;;19.98;10.55;;;154.10;2252.80;;;;;;5053502;28;20484;-76
2021/04/04 04:58:34;;;;;;;20.35;11.68;;;154.10;2252.80;;;;;;5054942;28;20017;-92
2021/04/04 05:01:07;;;;;;;17.20;10.25;;;154.10;2252.80;;;;;;5055081;28;20017;-75
2021/04/04 05:03:33;;;;;;;19.17;9.75;;;153.80;2252.80;;;;;;5054283;28;20021;-76
2021/04/04 05:06:02;;;;;;;;;;;154.10;2252.80;;;;;;5053911;28;20500;-91
2021/04/04 05:08:30;;;;;;;14.15;8.32;;;154.00;2252.80;;;;;;5055003;28;20035;-75
2021/04/04 05:10:57;;;;;;;17.90;8.68;;;153.80;2252.80;;;;;;5049812;28;20381;-75
2021/04/04 05:13:24;;;;;;;13.07;7.85;;;153.90;2252.80;;;;;;5055108;28;20523;-88
2021/04/04 05:15:51;;;;;;;17.95;10.43;;;153.90;2252.80;;;;;;5054825;28;20044;-88
2021/04/04 05:18:17;;;;;;;16.50;9.10;;;154.00;2252.80;;;;;;5054875;28;20060;-75
2021/04/04 05:20:44;;;;;;;;;;;154.00;2252.80;;;;;;5054950;28;20017;-90
2021/04/04 05:23:10;;;;;;;17.48;9.98;;;154.20;2252.80;;;;;;5054869;28;19912;-88
2021/04/04 05:25:36;;;;;;;;;;;154.10;2252.80;;;;;;5055012;28;20021;-76
2021/04/04 05:28:02;;;;;;;17.98;9.38;;;154.00;2252.80;;;;;;5054326;28;19912;-75
2021/04/04 05:30:27;;;;;;;;;;;153.90;2252.80;;;;;;5053876;28;20013;-76
2021/04/04 05:32:53;;;;;;;25.38;12.65;;;154.10;2252.80;;;;;;5054481;28;19931;-88
2021/04/04 05:35:20;;;;;;;;;;;154.00;2252.80;;;;;;5055100;28;20046;-76
2021/04/04 05:37:47;;;;;;;13.40;7.03;;;154.00;2252.80;;;;;;5054547;28;19959;-76
2021/04/04 05:40:23;;;;;;;10.32;6.07;;;154.00;2252.80;;;;;;5054167;28;20393;-85
2021/04/04 05:42:50;;;;;;;;;;;154.00;2252.80;;;;;;5053414;28;20013;-75
2021/04/04 05:45:23;;;;;;;12.07;7.18;;;154.00;2252.80;;;;;;5051980;28;19908;-75
2021/04/04 05:47:58;;;;;;;11.23;6.65;;;154.10;2252.80;;;;;;5052236;28;20041;-75
2021/04/04 05:50:30;;;;;;;11.63;6.70;;;154.10;2252.80;;;;;;5052193;28;20103;-77
2021/04/04 05:53:04;;;;;;;14.65;6.80;;;154.20;2252.80;;;;;;5052106;28;20023;-93
2021/04/04 05:55:39;;;;;;;11.10;5.57;;;154.20;2252.80;;;;;;5054196;28;20020;-76
2021/04/04 05:58:11;;;;;;;12.02;6.85;;;154.30;2227.20;;;;;;5052051;28;20024;-77
2021/04/04 06:00:44;;;;;;;12.23;6.70;;;154.50;2252.80;;;;;;5050811;28;20088;-76
2021/04/04 06:03:12;;;;;;;9.75;5.45;;;154.30;2252.80;;;;;;5053610;28;20017;-77
2021/04/04 06:06:16;;;;;;;14.05;6.22;;;154.30;2252.80;;;;;;5033677;28;20045;-92
2021/04/04 06:08:48;;;;;;;12.20;6.78;;;179.30;2227.20;;;;;;5043943;28;20159;-91
2021/04/04 06:11:52;;;;;;;8.88;5.60;;;179.50;2201.60;;;;;;5053820;28;20032;-88
2021/04/04 06:14:29;;;;;;;11.48;6.93;;;179.50;2201.60;;;;;;5047220;28;20029;-76
2021/04/04 06:16:57;;;;;;;9.65;6.18;;;179.50;2201.60;;;;;;5053311;28;20382;-76
2021/04/04 06:19:37;;;;;;;10.98;6.40;;;179.50;2227.20;;;;;;5053462;28;20469;-84
2021/04/04 06:22:23;;;;;;;11.10;6.38;;;179.50;2201.60;;;;;;5051414;28;20461;-81
2021/04/04 06:24:56;;;;;;;13.18;6.03;;;179.60;2201.60;;;;;;5052195;28;20071;-76
2021/04/04 06:27:36;;;;;;;12.40;5.95;;;179.60;2176.00;;;;;;5051057;28;20028;-75
2021/04/04 06:30:01;;;;;;;8.20;6.00;;;179.50;2201.60;;;;;;5051135;28;20025;-75
2021/04/04 06:32:43;;;;;;;;;;;179.40;2201.60;;;;;;5053750;28;20021;-75
2021/04/04 06:35:39;;;;;;;9.82;5.85;;;179.70;2201.60;;;;;;5052071;28;20449;-75
2021/04/04 06:38:20;;;;;;;8.65;5.38;;;179.90;2176.00;;;;;;5051654;28;20362;-76
2021/04/04 06:40:51;;;;;;;8.43;5.55;;;179.80;2176.00;;;;;;5033158;28;20028;-76
2021/04/04 06:43:38;;;;;;;8.95;5.28;;;180.10;2176.00;;;;;;5053048;28;20083;-80
2021/04/04 06:46:42;;;;;;;10.95;5.88;;;204.80;2124.80;;;;;;5050907;28;20025;-79
2021/04/04 06:49:41;;;;;;;10.23;6.05;;;204.90;2124.80;;;;;;4980438;28;20047;-90
2021/04/04 06:52:23;;;;;;;11.20;6.43;;;204.90;2150.40;;;;;;4981875;28;20022;-85
2021/04/04 06:55:03;;;;;;;8.90;5.90;;;180.10;2124.80;;;;;;4980834;28;20105;-91
2021/04/04 06:57:57;;;;;;;11.70;5.75;;;180.10;2124.80;;;;;;4981208;28;20030;-93
2021/04/04 07:00:31;;;;;;;9.15;6.05;;;204.90;2099.20;;;;;;4966084;28;20022;-92
2021/04/04 07:03:07;;;;;;;9.13;6.22;;;180.10;2099.20;;;;;;4982641;28;20026;-85
2021/04/04 07:06:11;;;;;;;9.90;5.00;;;204.80;2124.80;;;;;;4982336;28;20499;-82
2021/04/04 07:09:10;;;;;;;8.88;5.43;;;204.90;2048.00;;;;;;4982568;28;20093;-75
2021/04/04 07:12:11;;;;;;;8.18;5.20;;;205.00;2048.00;;;;;;4945698;28;20041;-75
2021/04/04 07:14:53;;;;;;;8.55;5.75;;;205.10;2048.00;;;;;;4982622;28;20122;-75
2021/04/04 07:17:47;;;;;;;15.68;6.25;;;204.90;2022.40;;;;;;4983472;28;20453;-76
2021/04/04 07:20:59;;;;;;;9.43;5.95;;;205.00;1996.80;;;;;;4979381;28;20027;-75
2021/04/04 07:23:55;;;;;;;8.13;5.35;;;204.80;2022.40;;;;;;4986425;28;20030;-76
2021/04/04 07:26:43;;;;;;;9.63;5.80;;;204.80;2022.40;;;;;;5050376;28;20119;-80
2021/04/04 07:29:41;;;;;;;10.57;6.28;;;204.90;2022.40;;;;;;5053988;28;20434;-78
2021/04/04 07:32:20;;;;;;;9.75;4.65;;;204.80;2022.40;;;;;;5033094;28;20036;-82
2021/04/04 07:35:06;;;;;;;7.55;4.93;;;205.00;1996.80;;;;;;5052390;28;20017;-76
2021/04/04 07:37:43;;;;;;;8.15;5.40;;;204.90;1971.20;;;;;;5052329;28;20082;-75
2021/04/04 07:40:18;;;;;;;9.00;5.47;;;205.00;1996.80;;;;;;5041174;28;20490;-75
2021/04/04 07:43:00;;;;;;;10.65;6.70;;;205.00;2022.40;;;;;;5049825;28;20431;-77
2021/04/04 07:45:35;;;;;;;8.13;5.25;;;205.10;2022.40;;;;;;5050291;28;20043;-77
2021/04/04 07:48:22;;;;;;;8.05;5.25;;;205.10;1996.80;;;;;;5052533;28;20068;-86
2021/04/04 07:51:06;;;;;;;12.75;7.57;;;205.30;1996.80;;;;;;5052784;28;20067;-75
2021/04/04 07:53:50;;;;;;;11.57;5.53;;;205.00;2048.00;;;;;;5044493;28;20014;-76
2021/04/04 07:56:18;;;;;;;10.07;5.75;;;205.00;1996.80;;;;;;5050098;28;20477;-76
2021/04/04 07:59:13;;;;;;;13.13;7.03;;;204.90;2022.40;;;;;;5049354;28;20518;-89
2021/04/04 08:01:51;;;;;;;10.52;6.00;;;205.00;1996.80;;;;;;5032721;28;20033;-82
2021/04/04 08:04:28;;;;;;;10.63;6.40;;;204.90;1945.60;;;;;;5052341;28;20021;-76
2021/04/04 08:07:07;;;;;;;;;;;204.80;1945.60;;;;;;5055290;28;20048;-82
2021/04/04 08:09:57;;;;;;;11.80;7.20;;;204.80;1945.60;;;;;;5057174;28;19916;-75
2021/04/04 08:13:01;;;;;;;11.25;6.30;;;204.90;1945.60;;;;;;5056183;28;20025;-76
2021/04/04 08:15:34;;;;;;;10.15;6.95;;;205.00;1971.20;;;;;;4952013;29;20043;-75
2021/04/04 08:18:00;;;;;;;11.77;6.90;;;204.90;1971.20;;;;;;4956141;29;20046;-83
2021/04/04 08:20:34;;;;;;;14.80;7.03;;;204.90;1945.60;;;;;;4948150;29;20087;-87
2021/04/04 08:23:14;;;;;;;10.70;6.82;;;205.00;1971.20;;;;;;4955913;28;20030;-75
2021/04/04 08:26:00;;;;;;;7.72;5.35;;;205.10;1945.60;;;;;;4955714;28;20035;-75
2021/04/04 08:28:34;;;;;;;9.90;6.55;;;205.00;1971.20;;;;;;4955886;29;20031;-76
2021/04/04 08:31:24;;;;;;;28.05;15.52;;;205.00;1996.80;;;;;;4955418;28;20067;-83
2021/04/04 08:34:13;;;;;;;12.15;5.85;;;205.20;1945.60;;;;;;4942059;28;20032;-82
2021/04/04 08:36:43;;;;;;;8.75;5.97;;;205.30;1920.00;;;;;;4955170;29;20035;-82
2021/04/04 08:39:12;;;;;;;9.55;6.22;;;205.50;1920.00;;;;;;4955267;29;20039;-77
2021/04/04 08:41:40;;;;;;;11.18;7.10;;;205.40;1920.00;;;;;;4953982;29;20031;-90
2021/04/04 08:44:28;;;;;;;11.05;6.75;;;205.30;1971.20;;;;;;4955126;29;20050;-84
2021/04/04 08:47:14;;;;;;;12.85;7.95;;;205.30;1945.60;;;;;;4955455;29;20114;-89
2021/04/04 08:49:41;;;;;;;61.78;20.02;;;205.30;1996.80;;;;;;4953828;29;20047;-87
2021/04/04 08:52:12;;;;;;;19.80;10.48;;;205.10;2022.40;;;;;;5047788;28;20021;-75
2021/04/04 08:54:41;;;;;;;17.42;9.23;;;205.00;2022.40;;;;;;5051960;28;20355;-76
2021/04/04 08:57:07;;;;;;;15.23;9.25;;;205.00;2048.00;;;;;;5055139;28;20060;-82
2021/04/04 08:59:33;;;;;;;;;;;205.00;2022.40;;;;;;5055507;28;20036;-76
2021/04/04 09:02:05;;;;;;;18.92;10.10;;;205.10;1996.80;;;;;;5055047;28;19905;-76
2021/04/04 09:04:33;;;;;;;22.88;11.10;;;205.20;1971.20;;;;;;5053151;28;20362;-85
2021/04/04 09:07:03;;;;;;;14.90;8.18;;;205.30;1996.80;;;;;;5054593;28;20025;-82
2021/04/04 09:09:41;;;;;;;12.63;8.05;;;205.40;1945.60;;;;;;5054639;28;20079;-81
2021/04/04 09:12:08;;;;;;;18.52;9.52;;;205.50;1945.60;;;;;;5054589;28;20032;-80
2021/04/04 09:14:39;;;;;;;12.77;8.10;;;205.50;1920.00;;;;;;5051724;28;20047;-82
2021/04/04 09:17:15;;;;;;;15.82;7.68;;;205.70;1920.00;;;;;;5054228;28;20071;-77
2021/04/04 09:19:44;;;;;;;16.98;10.35;;;205.60;1971.20;;;;;;5054271;28;20130;-75
2021/04/04 09:22:09;;;;;;;30.10;19.92;;;205.50;1971.20;;;;;;5045812;28;20105;-76
2021/04/04 09:24:40;;;;;;;;;;;205.50;1971.20;;;;;;5045193;28;20117;-76
2021/04/04 09:27:11;;;;;;;23.20;12.20;;;205.70;1971.20;;;;;;5050167;28;19905;-75
2021/04/04 09:29:38;;;;;;;18.02;11.25;;;205.50;1996.80;;;;;;5054501;28;20039;-80
2021/04/04 09:32:12;;;;;;;17.77;11.15;;;205.30;2022.40;;;;;;5054240;28;20553;-75
2021/04/04 09:34:42;;;;;;;18.40;11.43;;;205.70;1996.80;;;;;;5053719;28;20024;-78
2021/04/04 09:37:08;;;;;;;20.10;11.10;;;205.60;2022.40;;;;;;5052158;28;20013;-80
2021/04/04 09:39:38;;;;;;;15.25;10.13;;;205.70;2022.40;;;;;;5054130;28;20357;-76
2021/04/04 09:42:04;;;;;;;16.13;10.32;;;230.40;1996.80;;;;;;5054237;28;20029;-76
2021/04/04 09:44:32;;;;;;;16.70;9.25;;;230.50;1971.20;;;;;;5053368;28;20040;-75
2021/04/04 09:47:01;;;;;;;17.60;10.07;;;230.60;1971.20;;;;;;5054391;28;20021;-75
2021/04/04 09:49:37;;;;;;;19.15;11.02;;;230.70;1945.60;;;;;;5047946;28;20051;-75
2021/04/04 09:52:13;;;;;;;;;;;230.60;1996.80;;;;;;5047894;28;20479;-76
2021/04/04 09:54:58;;;;;;;20.88;11.52;;;230.70;1971.20;;;;;;5054274;28;19905;-75
2021/04/04 09:57:24;;;;;;;11.45;7.93;;;230.70;1945.60;;;;;;5053783;28;20358;-79
2021/04/04 09:59:50;;;;;;;;;;;230.60;1843.20;;;;;;5054458;28;20153;-80
2021/04/04 10:02:33;;;;;;;9.15;5.72;;;230.40;1843.20;;;;;;5053782;28;20003;-74
2021/04/04 10:04:59;;;;;;;11.80;7.65;;;205.60;1868.80;;;;;;5029509;28;20021;-74
2021/04/04 10:07:29;;;;;;;12.18;7.32;;;205.50;1920.00;;;;;;5053445;28;20469;-75
2021/04/04 10:09:56;;;;;;;10.35;6.43;;;205.70;1945.60;;;;;;5050577;28;20021;-81
2021/04/04 10:12:21;;;;;;;9.52;6.22;;;230.40;1945.60;;;;;;5053709;28;20028;-75
2021/04/04 10:15:00;;;;;;;;;;;230.50;1920.00;;;;;;5053800;28;20435;-75
2021/04/04 10:17:25;;;;;;;13.30;6.57;;;230.70;1920.00;;;;;;5053040;28;20399;-75
2021/04/04 10:19:55;;;;;;;;;;;230.60;1920.00;;;;;;5053946;28;20029;-83
2021/04/04 10:22:21;;;;;;;12.90;7.38;;;230.90;1945.60;;;;;;5049549;28;19995;-75
2021/04/04 10:24:48;;;;;;;18.00;8.57;;;230.70;1920.00;;;;;;5047026;28;20017;-75
2021/04/04 10:27:26;;;;;;;12.75;7.35;;;230.70;1945.60;;;;;;5053646;28;20427;-82
2021/04/04 10:30:16;;;;;;;15.95;9.15;;;230.80;1843.20;;;;;;5051412;28;20029;-80
2021/04/04 10:32:51;;;;;;;13.95;7.55;;;230.80;1868.80;;;;;;5052761;28;20067;-76
2021/04/04 10:35:32;;;;;;;10.30;6.63;;;231.10;1843.20;;;;;;5051962;28;20134;-75
2021/04/04 10:38:05;;;;;;;10.90;6.68;;;230.80;1817.60;;;;;;5051908;28;20139;-85
2021/04/04 10:40:48;;;;;;;10.65;6.93;;;230.90;1817.60;;;;;;5048445;28;20047;-85
2021/04/04 10:43:15;;;;;;;16.52;9.70;;;231.10;1792.00;;;;;;5053609;28;20040;-75
2021/04/04 10:46:05;;;;;;;15.98;9.68;;;256.00;1817.60;;;;;;5053233;28;20025;-84
2021/04/04 10:48:33;;;;;;;12.90;7.32;;;256.10;1740.80;;;;;;5053109;28;20401;-86
2021/04/04 10:51:00;;;;;;;15.55;9.32;;;256.20;1715.20;;;;;;5053067;28;20028;-74
2021/04/04 10:53:26;;;;;;;10.27;6.45;;;256.80;1715.20;;;;;;5052956;28;20355;-76
2021/04/04 10:55:51;;;;;;;;;;;256.80;1664.00;;;;;;5050398;28;20044;-80
2021/04/04 10:58:24;;;;;;;12.75;7.10;;;281.60;1664.00;;;;;;5044826;28;19916;-85
2021/04/04 11:00:50;;;;;;;11.05;6.57;;;256.70;1689.60;;;;;;5053002;28;20021;-78
2021/04/04 11:03:16;;;;;;;11.63;6.38;;;256.50;1664.00;;;;;;5053135;28;20582;-88
2021/04/04 11:05:42;;;;;;;14.20;6.32;;;256.10;1664.00;;;;;;5053396;28;20021;-85
2021/04/04 11:08:09;;;;;;;11.30;6.95;;;256.10;1715.20;;;;;;5053483;28;20155;-85
2021/04/04 11:10:35;;;;;;;12.48;7.30;;;256.40;1740.80;;;;;;5051822;28;20028;-79
2021/04/04 11:13:03;;;;;;;16.17;7.18;;;256.70;1664.00;;;;;;5053512;28;20095;-90
2021/04/04 11:15:30;;;;;;;12.05;7.60;;;256.70;1689.60;;;;;;5053032;28;20083;-78
2021/04/04 11:18:05;;;;;;;11.82;6.43;;;256.40;1689.60;;;;;;5052576;28;20063;-75
2021/04/04 11:20:32;;;;;;;9.18;6.13;;;256.10;1689.60;;;;;;5044476;28;20029;-80
2021/04/04 11:22:58;;;;;;;13.80;6.90;;;231.30;1689.60;;;;;;5052922;28;20021;-79
2021/04/04 11:25:31;;;;;;;;;;;231.30;1715.20;;;;;;5053207;28;20032;-75
2021/04/04 11:27:57;;;;;;;12.07;7.82;;;231.20;1740.80;;;;;;5055465;28;19927;-74
2021/04/04 11:30:32;;;;;;;15.60;7.03;;;231.00;1766.40;;;;;;5056654;28;20021;-76
2021/04/04 11:33:16;;;;;;;11.63;7.18;;;256.00;1715.20;;;;;;5056553;28;20040;-84
2021/04/04 11:35:56;;;;;;;10.73;6.90;;;256.10;1766.40;;;;;;5056174;28;20036;-75
2021/04/04 11:38:22;;;;;;;16.55;7.85;;;256.50;1715.20;;;;;;5053741;28;20025;-75
2021/04/04 11:41:13;;;;;;;15.77;7.30;;;256.50;1740.80;;;;;;5056331;28;20096;-75
2021/04/04 11:43:39;;;;;;;13.13;7.93;;;256.40;1689.60;;;;;;5055950;28;20041;-82
2021/04/04 11:46:25;;;;;;;14.02;8.45;;;256.60;1715.20;;;;;;5056338;28;20091;-75
2021/04/04 11:48:51;;;;;;;12.13;7.93;;;256.60;1766.40;;;;;;5054553;28;20044;-80
2021/04/04 11:51:17;;;;;;;16.88;8.40;;;256.40;1715.20;;;;;;5055178;28;20423;-76
2021/04/04 11:53:42;;;;;;;;;;;281.70;1715.20;;;;;;5056394;28;20028;-78
2021/04/04 11:56:09;;;;;;;14.65;8.07;;;281.60;1689.60;;;;;;5056285;28;19905;-79
2021/04/04 11:58:34;;;;;;;14.70;8.32;;;256.90;1689.60;;;;;;5056057;28;20049;-77
2021/04/04 12:01:01;;;;;;;10.90;7.18;;;281.70;1740.80;;;;;;5055690;28;20052;-77
2021/04/04 12:03:27;;;;;;;11.90;7.53;;;256.90;1715.20;;;;;;5054804;28;20052;-75
2021/04/04 12:05:53;;;;;;;11.52;6.40;;;256.50;1715.20;;;;;;5053797;28;20048;-75
2021/04/04 12:08:28;;;;;;;;;;;256.40;1766.40;;;;;;5055160;28;20535;-76
2021/04/04 12:10:55;;;;;;;17.35;9.57;;;256.20;1740.80;;;;;;5055349;28;19914;-75
2021/04/04 12:13:22;;;;;;;13.55;7.45;;;256.50;1740.80;;;;;;5056528;28;20110;-79
2021/04/04 12:15:48;;;;;;;16.10;8.77;;;256.40;1689.60;;;;;;5055005;28;20041;-76
2021/04/04 12:18:14;;;;;;;14.50;7.65;;;256.40;1715.20;;;;;;5055664;28;20025;-76
2021/04/04 12:20:41;;;;;;;19.63;8.13;;;256.40;1689.60;;;;;;5056153;28;20017;-80
2021/04/04 12:23:14;;;;;;;10.52;6.13;;;256.20;1740.80;;;;;;5055092;28;20381;-75
2021/04/04 12:25:41;;;;;;;9.65;6.72;;;256.40;1715.20;;;;;;5055808;28;20131;-75
2021/04/04 12:28:07;;;;;;;14.05;7.45;;;256.30;1740.80;;;;;;5055950;28;20063;-75
2021/04/04 12:30:40;;;;;;;15.88;8.60;;;256.40;1715.20;;;;;;5055995;28;20017;-75
2021/04/04 12:33:20;;;;;;;14.55;7.82;;;256.20;1766.40;;;;;;5055830;28;20017;-75
2021/04/04 12:35:51;;;;;;;8.02;5.68;;;256.20;1740.80;;;;;;5055487;28;20108;-75
2021/04/04 12:38:31;;;;;;;9.27;6.07;;;231.30;1740.80;;;;;;5055489;28;20059;-79
2021/04/04 12:40:58;;;;;;;10.50;6.65;;;231.30;1740.80;;;;;;5054808;28;20107;-75